Terminal Aerodrome Forecast
Issued by NWS Pendleton, OR

Home | Current Version | Previous Version | Text Only | Print | Product List | Glossary On
Versions: 1 2 3 4 5 6 7 8 9 10 11 12 13 14 15 16 17
000
FTUS46 KPDT 251737
TAFPDT
TAF
KPDT 251737Z 2518/2618 15004KT P6SM SCT060 BKN200
     FM251900 27010KT P6SM SKC
     FM252100 29010G18KT P6SM SKC
     FM260300 22007KT P6SM SKC
     FM260700 16007KT P6SM FEW030 SCT070 BKN150
     FM261200 18005KT P6SM SCT030 SCT070 BKN150
     FM261500 21006KT P6SM SCT030 BKN070 OVC150=

USA.gov is the U.S. government's official web portal to all federal, state and local government web resources and services.